sensor_id;sensor_type;location;lat;lon;timestamp;P1;durP1;ratioP1;P2;durP2;ratioP2
19024;SDS011;9645;51.448;6.260;2023-11-22T00:00:22;25.60;;;10.82;;
19024;SDS011;9645;51.448;6.260;2023-11-22T00:02:49;30.83;;;11.23;;
19024;SDS011;9645;51.448;6.260;2023-11-22T00:05:17;28.30;;;10.68;;
19024;SDS011;9645;51.448;6.260;2023-11-22T00:07:44;28.67;;;11.05;;
19024;SDS011;9645;51.448;6.260;2023-11-22T00:10:11;29.95;;;10.90;;
19024;SDS011;9645;51.448;6.260;2023-11-22T00:12:38;24.90;;;10.10;;
19024;SDS011;9645;51.448;6.260;2023-11-22T00:15:06;35.72;;;12.55;;
19024;SDS011;9645;51.448;6.260;2023-11-22T00:17:36;29.00;;;10.00;;
19024;SDS011;9645;51.448;6.260;2023-11-22T00:20:04;27.75;;;10.70;;
19024;SDS011;9645;51.448;6.260;2023-11-22T00:22:33;30.63;;;11.35;;
19024;SDS011;9645;51.448;6.260;2023-11-22T00:25:00;26.75;;;10.77;;
19024;SDS011;9645;51.448;6.260;2023-11-22T00:27:27;31.85;;;11.70;;
19024;SDS011;9645;51.448;6.260;2023-11-22T00:29:56;35.47;;;10.80;;
19024;SDS011;9645;51.448;6.260;2023-11-22T00:32:23;30.73;;;11.75;;
19024;SDS011;9645;51.448;6.260;2023-11-22T00:34:52;25.40;;;10.50;;
19024;SDS011;9645;51.448;6.260;2023-11-22T00:37:19;28.48;;;10.48;;
19024;SDS011;9645;51.448;6.260;2023-11-22T00:39:46;28.55;;;11.43;;
19024;SDS011;9645;51.448;6.260;2023-11-22T00:42:14;38.00;;;11.88;;
19024;SDS011;9645;51.448;6.260;2023-11-22T00:44:45;22.63;;;9.48;;
19024;SDS011;9645;51.448;6.260;2023-11-22T00:47:11;27.60;;;10.90;;
19024;SDS011;9645;51.448;6.260;2023-11-22T00:49:38;31.92;;;11.32;;
19024;SDS011;9645;51.448;6.260;2023-11-22T00:52:07;30.08;;;11.52;;
19024;SDS011;9645;51.448;6.260;2023-11-22T00:54:34;28.77;;;11.52;;
19024;SDS011;9645;51.448;6.260;2023-11-22T00:57:01;31.58;;;11.82;;
19024;SDS011;9645;51.448;6.260;2023-11-22T00:59:29;33.75;;;12.20;;
19024;SDS011;9645;51.448;6.260;2023-11-22T01:01:56;34.47;;;12.60;;
19024;SDS011;9645;51.448;6.260;2023-11-22T01:04:23;32.38;;;11.80;;
19024;SDS011;9645;51.448;6.260;2023-11-22T01:06:51;28.92;;;11.15;;
19024;SDS011;9645;51.448;6.260;2023-11-22T01:09:19;26.60;;;10.52;;
19024;SDS011;9645;51.448;6.260;2023-11-22T01:11:49;28.50;;;11.68;;
19024;SDS011;9645;51.448;6.260;2023-11-22T01:14:17;27.02;;;11.15;;
19024;SDS011;9645;51.448;6.260;2023-11-22T01:16:48;29.30;;;11.15;;
19024;SDS011;9645;51.448;6.260;2023-11-22T01:19:20;27.15;;;11.48;;
19024;SDS011;9645;51.448;6.260;2023-11-22T01:21:56;31.80;;;12.15;;
19024;SDS011;9645;51.448;6.260;2023-11-22T01:24:25;31.85;;;12.15;;
19024;SDS011;9645;51.448;6.260;2023-11-22T01:26:53;34.05;;;12.02;;
19024;SDS011;9645;51.448;6.260;2023-11-22T01:29:24;30.90;;;11.15;;
19024;SDS011;9645;51.448;6.260;2023-11-22T01:31:53;30.48;;;12.32;;
19024;SDS011;9645;51.448;6.260;2023-11-22T01:34:21;32.78;;;12.38;;
19024;SDS011;9645;51.448;6.260;2023-11-22T01:36:49;31.77;;;13.13;;
19024;SDS011;9645;51.448;6.260;2023-11-22T01:39:17;34.30;;;12.98;;
19024;SDS011;9645;51.448;6.260;2023-11-22T01:41:48;35.83;;;13.57;;
19024;SDS011;9645;51.448;6.260;2023-11-22T01:44:16;42.70;;;13.18;;
19024;SDS011;9645;51.448;6.260;2023-11-22T01:46:47;44.03;;;15.38;;
19024;SDS011;9645;51.448;6.260;2023-11-22T01:49:15;36.75;;;12.77;;
19024;SDS011;9645;51.448;6.260;2023-11-22T01:51:43;39.15;;;13.50;;
19024;SDS011;9645;51.448;6.260;2023-11-22T01:54:10;35.53;;;13.45;;
19024;SDS011;9645;51.448;6.260;2023-11-22T01:56:39;49.63;;;14.77;;
19024;SDS011;9645;51.448;6.260;2023-11-22T01:59:08;39.03;;;13.48;;
19024;SDS011;9645;51.448;6.260;2023-11-22T02:01:36;35.08;;;14.35;;
19024;SDS011;9645;51.448;6.260;2023-11-22T02:04:06;40.88;;;14.48;;
19024;SDS011;9645;51.448;6.260;2023-11-22T02:06:35;38.90;;;13.60;;
19024;SDS011;9645;51.448;6.260;2023-11-22T02:09:02;55.65;;;13.77;;
19024;SDS011;9645;51.448;6.260;2023-11-22T02:11:30;37.42;;;12.40;;
19024;SDS011;9645;51.448;6.260;2023-11-22T02:13:57;39.53;;;13.20;;
19024;SDS011;9645;51.448;6.260;2023-11-22T02:16:30;30.95;;;13.80;;
19024;SDS011;9645;51.448;6.260;2023-11-22T02:19:00;37.78;;;13.35;;
19024;SDS011;9645;51.448;6.260;2023-11-22T02:21:28;43.13;;;14.15;;
19024;SDS011;9645;51.448;6.260;2023-11-22T02:23:57;40.70;;;14.15;;
19024;SDS011;9645;51.448;6.260;2023-11-22T02:26:24;36.72;;;13.85;;
19024;SDS011;9645;51.448;6.260;2023-11-22T02:28:51;40.17;;;13.20;;
19024;SDS011;9645;51.448;6.260;2023-11-22T02:31:19;38.40;;;13.50;;
19024;SDS011;9645;51.448;6.260;2023-11-22T02:33:47;39.35;;;13.80;;
19024;SDS011;9645;51.448;6.260;2023-11-22T02:36:15;38.78;;;14.77;;
19024;SDS011;9645;51.448;6.260;2023-11-22T02:38:43;34.70;;;12.82;;
19024;SDS011;9645;51.448;6.260;2023-11-22T02:41:12;35.67;;;13.68;;
19024;SDS011;9645;51.448;6.260;2023-11-22T02:43:39;34.80;;;13.05;;
19024;SDS011;9645;51.448;6.260;2023-11-22T02:46:11;40.00;;;13.88;;
19024;SDS011;9645;51.448;6.260;2023-11-22T02:48:39;46.45;;;14.65;;
19024;SDS011;9645;51.448;6.260;2023-11-22T02:51:06;39.15;;;14.98;;
19024;SDS011;9645;51.448;6.260;2023-11-22T02:53:34;38.75;;;14.88;;
19024;SDS011;9645;51.448;6.260;2023-11-22T02:56:02;41.55;;;15.02;;
19024;SDS011;9645;51.448;6.260;2023-11-22T02:58:31;40.85;;;14.25;;
19024;SDS011;9645;51.448;6.260;2023-11-22T03:01:02;33.85;;;13.38;;
19024;SDS011;9645;51.448;6.260;2023-11-22T03:03:29;50.58;;;15.55;;
19024;SDS011;9645;51.448;6.260;2023-11-22T03:05:57;40.47;;;15.20;;
19024;SDS011;9645;51.448;6.260;2023-11-22T03:08:25;40.38;;;15.60;;
19024;SDS011;9645;51.448;6.260;2023-11-22T03:10:55;39.70;;;15.48;;
19024;SDS011;9645;51.448;6.260;2023-11-22T03:13:25;39.72;;;15.05;;
19024;SDS011;9645;51.448;6.260;2023-11-22T03:15:56;42.10;;;14.30;;
19024;SDS011;9645;51.448;6.260;2023-11-22T03:18:24;37.78;;;14.02;;
19024;SDS011;9645;51.448;6.260;2023-11-22T03:20:51;46.47;;;15.23;;
19024;SDS011;9645;51.448;6.260;2023-11-22T03:23:20;39.60;;;15.25;;
19024;SDS011;9645;51.448;6.260;2023-11-22T03:25:48;48.35;;;17.27;;
19024;SDS011;9645;51.448;6.260;2023-11-22T03:28:15;42.00;;;15.43;;
19024;SDS011;9645;51.448;6.260;2023-11-22T03:30:43;43.67;;;14.52;;
19024;SDS011;9645;51.448;6.260;2023-11-22T03:33:13;39.83;;;14.68;;
19024;SDS011;9645;51.448;6.260;2023-11-22T03:35:41;40.38;;;14.65;;
19024;SDS011;9645;51.448;6.260;2023-11-22T03:38:08;41.80;;;14.77;;
19024;SDS011;9645;51.448;6.260;2023-11-22T03:40:38;40.30;;;15.27;;
19024;SDS011;9645;51.448;6.260;2023-11-22T03:43:09;34.78;;;13.57;;
19024;SDS011;9645;51.448;6.260;2023-11-22T03:45:37;39.17;;;14.45;;
19024;SDS011;9645;51.448;6.260;2023-11-22T03:48:06;37.97;;;13.82;;
19024;SDS011;9645;51.448;6.260;2023-11-22T03:50:38;35.75;;;13.18;;
19024;SDS011;9645;51.448;6.260;2023-11-22T03:53:06;46.55;;;14.40;;
19024;SDS011;9645;51.448;6.260;2023-11-22T03:55:36;42.33;;;13.65;;
19024;SDS011;9645;51.448;6.260;2023-11-22T03:58:04;36.47;;;13.88;;
19024;SDS011;9645;51.448;6.260;2023-11-22T04:00:39;51.38;;;14.48;;
19024;SDS011;9645;51.448;6.260;2023-11-22T04:03:08;37.50;;;13.55;;
19024;SDS011;9645;51.448;6.260;2023-11-22T04:05:40;36.55;;;13.10;;
19024;SDS011;9645;51.448;6.260;2023-11-22T04:08:08;34.05;;;13.65;;
19024;SDS011;9645;51.448;6.260;2023-11-22T04:10:36;29.67;;;10.85;;
19024;SDS011;9645;51.448;6.260;2023-11-22T04:13:03;33.15;;;12.98;;
19024;SDS011;9645;51.448;6.260;2023-11-22T04:15:30;35.05;;;13.15;;
19024;SDS011;9645;51.448;6.260;2023-11-22T04:17:58;36.38;;;12.93;;
19024;SDS011;9645;51.448;6.260;2023-11-22T04:20:25;33.30;;;13.00;;
19024;SDS011;9645;51.448;6.260;2023-11-22T04:22:54;38.42;;;13.27;;
19024;SDS011;9645;51.448;6.260;2023-11-22T04:25:22;33.38;;;13.38;;
19024;SDS011;9645;51.448;6.260;2023-11-22T04:27:49;38.60;;;13.15;;
19024;SDS011;9645;51.448;6.260;2023-11-22T04:30:17;31.50;;;12.05;;
19024;SDS011;9645;51.448;6.260;2023-11-22T04:32:44;33.85;;;12.20;;
19024;SDS011;9645;51.448;6.260;2023-11-22T04:35:13;34.78;;;13.55;;
19024;SDS011;9645;51.448;6.260;2023-11-22T04:37:42;33.78;;;12.88;;
19024;SDS011;9645;51.448;6.260;2023-11-22T04:40:27;37.55;;;14.25;;
19024;SDS011;9645;51.448;6.260;2023-11-22T04:42:55;36.42;;;12.63;;
19024;SDS011;9645;51.448;6.260;2023-11-22T04:45:22;46.33;;;13.50;;
19024;SDS011;9645;51.448;6.260;2023-11-22T04:47:50;38.85;;;13.02;;
19024;SDS011;9645;51.448;6.260;2023-11-22T04:50:24;37.30;;;13.52;;
19024;SDS011;9645;51.448;6.260;2023-11-22T04:52:51;36.05;;;13.93;;
19024;SDS011;9645;51.448;6.260;2023-11-22T04:55:20;38.63;;;14.27;;
19024;SDS011;9645;51.448;6.260;2023-11-22T04:57:50;39.72;;;14.25;;
19024;SDS011;9645;51.448;6.260;2023-11-22T05:00:19;41.72;;;13.98;;
19024;SDS011;9645;51.448;6.260;2023-11-22T05:02:48;38.63;;;14.40;;
19024;SDS011;9645;51.448;6.260;2023-11-22T05:05:18;50.88;;;15.20;;
19024;SDS011;9645;51.448;6.260;2023-11-22T05:07:46;36.97;;;13.30;;
19024;SDS011;9645;51.448;6.260;2023-11-22T05:10:13;38.20;;;13.68;;
19024;SDS011;9645;51.448;6.260;2023-11-22T05:12:43;39.55;;;14.02;;
19024;SDS011;9645;51.448;6.260;2023-11-22T05:15:13;42.55;;;13.35;;
19024;SDS011;9645;51.448;6.260;2023-11-22T05:17:40;47.28;;;14.75;;
19024;SDS011;9645;51.448;6.260;2023-11-22T05:20:10;80.82;;;15.63;;
19024;SDS011;9645;51.448;6.260;2023-11-22T05:22:38;41.13;;;13.52;;
19024;SDS011;9645;51.448;6.260;2023-11-22T05:25:13;33.92;;;13.90;;
19024;SDS011;9645;51.448;6.260;2023-11-22T05:27:41;37.10;;;13.27;;
19024;SDS011;9645;51.448;6.260;2023-11-22T05:30:14;44.78;;;14.40;;
19024;SDS011;9645;51.448;6.260;2023-11-22T05:32:47;37.88;;;12.68;;
19024;SDS011;9645;51.448;6.260;2023-11-22T05:35:24;53.15;;;13.93;;
19024;SDS011;9645;51.448;6.260;2023-11-22T05:38:19;67.53;;;14.30;;
19024;SDS011;9645;51.448;6.260;2023-11-22T05:49:59;80.78;;;14.40;;
19024;SDS011;9645;51.448;6.260;2023-11-22T05:52:26;53.47;;;14.07;;
19024;SDS011;9645;51.448;6.260;2023-11-22T05:54:53;51.17;;;14.88;;
19024;SDS011;9645;51.448;6.260;2023-11-22T05:57:25;41.20;;;13.90;;
19024;SDS011;9645;51.448;6.260;2023-11-22T05:59:53;173.43;;;16.65;;
19024;SDS011;9645;51.448;6.260;2023-11-22T06:02:21;88.68;;;15.95;;
19024;SDS011;9645;51.448;6.260;2023-11-22T06:04:48;83.00;;;15.48;;
19024;SDS011;9645;51.448;6.260;2023-11-22T06:07:17;42.08;;;13.45;;
19024;SDS011;9645;51.448;6.260;2023-11-22T06:09:44;67.43;;;14.18;;
19024;SDS011;9645;51.448;6.260;2023-11-22T06:12:13;81.05;;;13.65;;
19024;SDS011;9645;51.448;6.260;2023-11-22T06:14:41;53.80;;;13.88;;
19024;SDS011;9645;51.448;6.260;2023-11-22T06:17:08;127.93;;;14.43;;
19024;SDS011;9645;51.448;6.260;2023-11-22T06:19:35;79.20;;;14.88;;
19024;SDS011;9645;51.448;6.260;2023-11-22T06:22:02;44.72;;;14.00;;
19024;SDS011;9645;51.448;6.260;2023-11-22T06:24:31;215.43;;;17.75;;
19024;SDS011;9645;51.448;6.260;2023-11-22T06:27:01;102.85;;;14.35;;
19024;SDS011;9645;51.448;6.260;2023-11-22T06:29:28;44.65;;;14.10;;
19024;SDS011;9645;51.448;6.260;2023-11-22T06:31:56;147.63;;;15.50;;
19024;SDS011;9645;51.448;6.260;2023-11-22T06:34:23;39.10;;;14.38;;
19024;SDS011;9645;51.448;6.260;2023-11-22T06:36:50;36.13;;;12.75;;
19024;SDS011;9645;51.448;6.260;2023-11-22T06:39:17;37.47;;;12.88;;
19024;SDS011;9645;51.448;6.260;2023-11-22T06:41:46;88.10;;;12.27;;
19024;SDS011;9645;51.448;6.260;2023-11-22T06:44:13;139.90;;;14.82;;
19024;SDS011;9645;51.448;6.260;2023-11-22T06:46:40;31.20;;;12.18;;
19024;SDS011;9645;51.448;6.260;2023-11-22T06:49:08;57.95;;;13.02;;
19024;SDS011;9645;51.448;6.260;2023-11-22T06:51:35;50.50;;;13.68;;
19024;SDS011;9645;51.448;6.260;2023-11-22T06:54:02;53.00;;;14.60;;
19024;SDS011;9645;51.448;6.260;2023-11-22T06:56:29;57.60;;;11.80;;
19024;SDS011;9645;51.448;6.260;2023-11-22T06:58:59;63.83;;;12.02;;
19024;SDS011;9645;51.448;6.260;2023-11-22T07:01:26;147.65;;;14.73;;
19024;SDS011;9645;51.448;6.260;2023-11-22T07:03:54;71.70;;;13.27;;
19024;SDS011;9645;51.448;6.260;2023-11-22T07:06:21;33.65;;;10.82;;
19024;SDS011;9645;51.448;6.260;2023-11-22T07:08:49;241.02;;;17.30;;
19024;SDS011;9645;51.448;6.260;2023-11-22T07:11:21;172.15;;;15.13;;
19024;SDS011;9645;51.448;6.260;2023-11-22T07:13:49;88.28;;;15.93;;
19024;SDS011;9645;51.448;6.260;2023-11-22T07:16:18;55.17;;;12.60;;
19024;SDS011;9645;51.448;6.260;2023-11-22T07:18:45;143.40;;;15.13;;
19024;SDS011;9645;51.448;6.260;2023-11-22T07:21:13;246.05;;;15.98;;
19024;SDS011;9645;51.448;6.260;2023-11-22T07:23:40;206.50;;;14.15;;
19024;SDS011;9645;51.448;6.260;2023-11-22T07:26:07;49.63;;;11.77;;
19024;SDS011;9645;51.448;6.260;2023-11-22T07:28:35;84.55;;;11.60;;
19024;SDS011;9645;51.448;6.260;2023-11-22T07:31:02;108.18;;;13.38;;
19024;SDS011;9645;51.448;6.260;2023-11-22T07:33:32;45.50;;;11.10;;
19024;SDS011;9645;51.448;6.260;2023-11-22T07:35:59;33.28;;;11.43;;
19024;SDS011;9645;51.448;6.260;2023-11-22T07:38:28;58.67;;;12.48;;
19024;SDS011;9645;51.448;6.260;2023-11-22T07:40:56;83.68;;;13.50;;
19024;SDS011;9645;51.448;6.260;2023-11-22T07:43:23;47.45;;;12.35;;
19024;SDS011;9645;51.448;6.260;2023-11-22T07:45:49;47.15;;;12.10;;
19024;SDS011;9645;51.448;6.260;2023-11-22T07:48:17;33.65;;;11.32;;
19024;SDS011;9645;51.448;6.260;2023-11-22T07:50:47;27.25;;;10.82;;
19024;SDS011;9645;51.448;6.260;2023-11-22T07:53:15;71.65;;;12.95;;
19024;SDS011;9645;51.448;6.260;2023-11-22T07:55:42;58.67;;;12.50;;
19024;SDS011;9645;51.448;6.260;2023-11-22T07:58:09;41.05;;;13.38;;
19024;SDS011;9645;51.448;6.260;2023-11-22T08:00:37;110.47;;;13.60;;
19024;SDS011;9645;51.448;6.260;2023-11-22T08:03:07;33.45;;;12.23;;
19024;SDS011;9645;51.448;6.260;2023-11-22T08:05:34;44.70;;;14.85;;
19024;SDS011;9645;51.448;6.260;2023-11-22T08:08:06;37.85;;;13.75;;
19024;SDS011;9645;51.448;6.260;2023-11-22T08:10:34;41.10;;;12.68;;
19024;SDS011;9645;51.448;6.260;2023-11-22T08:13:01;37.85;;;13.38;;
19024;SDS011;9645;51.448;6.260;2023-11-22T08:15:28;33.08;;;12.35;;
19024;SDS011;9645;51.448;6.260;2023-11-22T08:17:56;37.65;;;13.68;;
19024;SDS011;9645;51.448;6.260;2023-11-22T08:20:25;42.42;;;14.63;;
19024;SDS011;9645;51.448;6.260;2023-11-22T08:22:52;36.15;;;13.48;;
19024;SDS011;9645;51.448;6.260;2023-11-22T08:25:21;30.17;;;12.10;;
19024;SDS011;9645;51.448;6.260;2023-11-22T08:27:48;37.15;;;12.93;;
19024;SDS011;9645;51.448;6.260;2023-11-22T08:30:15;54.50;;;13.30;;
19024;SDS011;9645;51.448;6.260;2023-11-22T08:32:43;60.90;;;12.90;;
19024;SDS011;9645;51.448;6.260;2023-11-22T08:35:16;34.42;;;12.25;;
19024;SDS011;9645;51.448;6.260;2023-11-22T08:37:43;40.67;;;13.65;;
19024;SDS011;9645;51.448;6.260;2023-11-22T08:40:12;33.72;;;13.75;;
19024;SDS011;9645;51.448;6.260;2023-11-22T08:42:41;35.20;;;14.25;;
19024;SDS011;9645;51.448;6.260;2023-11-22T08:45:09;35.90;;;13.50;;
19024;SDS011;9645;51.448;6.260;2023-11-22T08:47:39;37.83;;;13.23;;
19024;SDS011;9645;51.448;6.260;2023-11-22T08:50:07;38.85;;;14.10;;
19024;SDS011;9645;51.448;6.260;2023-11-22T08:52:36;40.22;;;14.20;;
19024;SDS011;9645;51.448;6.260;2023-11-22T08:55:04;37.95;;;14.73;;
19024;SDS011;9645;51.448;6.260;2023-11-22T08:57:32;38.33;;;15.45;;
19024;SDS011;9645;51.448;6.260;2023-11-22T09:00:02;32.85;;;13.40;;
19024;SDS011;9645;51.448;6.260;2023-11-22T09:02:31;35.20;;;14.27;;
19024;SDS011;9645;51.448;6.260;2023-11-22T09:04:58;29.90;;;13.07;;
19024;SDS011;9645;51.448;6.260;2023-11-22T09:07:25;31.45;;;12.75;;
19024;SDS011;9645;51.448;6.260;2023-11-22T09:09:53;26.42;;;11.35;;
19024;SDS011;9645;51.448;6.260;2023-11-22T09:12:20;32.67;;;12.40;;
19024;SDS011;9645;51.448;6.260;2023-11-22T09:14:47;32.58;;;12.65;;
19024;SDS011;9645;51.448;6.260;2023-11-22T09:17:15;39.03;;;12.85;;
19024;SDS011;9645;51.448;6.260;2023-11-22T09:19:42;30.23;;;11.93;;
19024;SDS011;9645;51.448;6.260;2023-11-22T09:22:09;25.35;;;10.55;;
19024;SDS011;9645;51.448;6.260;2023-11-22T09:24:36;24.30;;;10.40;;
19024;SDS011;9645;51.448;6.260;2023-11-22T09:27:03;21.23;;;9.97;;
19024;SDS011;9645;51.448;6.260;2023-11-22T09:29:31;26.83;;;10.20;;
19024;SDS011;9645;51.448;6.260;2023-11-22T09:31:59;20.93;;;9.83;;
19024;SDS011;9645;51.448;6.260;2023-11-22T09:34:28;16.57;;;8.57;;
19024;SDS011;9645;51.448;6.260;2023-11-22T09:36:56;17.50;;;9.10;;
19024;SDS011;9645;51.448;6.260;2023-11-22T09:39:24;15.00;;;8.70;;
19024;SDS011;9645;51.448;6.260;2023-11-22T09:41:51;19.17;;;9.73;;
19024;SDS011;9645;51.448;6.260;2023-11-22T09:44:18;15.23;;;8.63;;
19024;SDS011;9645;51.448;6.260;2023-11-22T09:46:47;18.70;;;9.67;;
19024;SDS011;9645;51.448;6.260;2023-11-22T09:49:19;16.83;;;9.73;;
19024;SDS011;9645;51.448;6.260;2023-11-22T09:51:52;24.90;;;9.77;;
19024;SDS011;9645;51.448;6.260;2023-11-22T09:54:22;18.00;;;9.73;;
19024;SDS011;9645;51.448;6.260;2023-11-22T09:56:56;21.27;;;10.10;;
19024;SDS011;9645;51.448;6.260;2023-11-22T09:59:26;20.53;;;10.20;;
19024;SDS011;9645;51.448;6.260;2023-11-22T10:01:54;19.97;;;10.67;;
19024;SDS011;9645;51.448;6.260;2023-11-22T10:04:24;19.00;;;10.57;;
19024;SDS011;9645;51.448;6.260;2023-11-22T10:06:55;21.30;;;10.73;;
19024;SDS011;9645;51.448;6.260;2023-11-22T10:09:23;17.97;;;10.50;;
19024;SDS011;9645;51.448;6.260;2023-11-22T10:11:52;17.70;;;9.60;;
19024;SDS011;9645;51.448;6.260;2023-11-22T10:14:22;20.13;;;9.33;;
19024;SDS011;9645;51.448;6.260;2023-11-22T10:16:57;21.93;;;10.53;;
19024;SDS011;9645;51.448;6.260;2023-11-22T10:19:25;18.10;;;9.67;;
19024;SDS011;9645;51.448;6.260;2023-11-22T10:22:03;20.07;;;9.47;;
19024;SDS011;9645;51.448;6.260;2023-11-22T10:24:31;15.93;;;9.33;;
19024;SDS011;9645;51.448;6.260;2023-11-22T10:26:59;20.97;;;10.27;;
19024;SDS011;9645;51.448;6.260;2023-11-22T10:29:26;19.10;;;10.23;;
19024;SDS011;9645;51.448;6.260;2023-11-22T10:31:53;20.63;;;10.43;;
19024;SDS011;9645;51.448;6.260;2023-11-22T10:34:20;21.67;;;10.47;;
19024;SDS011;9645;51.448;6.260;2023-11-22T10:36:48;27.00;;;11.17;;
19024;SDS011;9645;51.448;6.260;2023-11-22T10:39:19;17.53;;;10.57;;
19024;SDS011;9645;51.448;6.260;2023-11-22T10:41:46;21.73;;;10.03;;
19024;SDS011;9645;51.448;6.260;2023-11-22T10:44:16;25.10;;;11.23;;
19024;SDS011;9645;51.448;6.260;2023-11-22T10:46:47;24.50;;;10.60;;
19024;SDS011;9645;51.448;6.260;2023-11-22T10:49:15;25.27;;;11.00;;
19024;SDS011;9645;51.448;6.260;2023-11-22T10:51:43;23.90;;;11.57;;
19024;SDS011;9645;51.448;6.260;2023-11-22T10:54:13;23.37;;;11.40;;
19024;SDS011;9645;51.448;6.260;2023-11-22T10:56:43;23.50;;;11.17;;
19024;SDS011;9645;51.448;6.260;2023-11-22T10:59:16;20.50;;;10.67;;
19024;SDS011;9645;51.448;6.260;2023-11-22T11:01:49;20.63;;;11.10;;
19024;SDS011;9645;51.448;6.260;2023-11-22T11:04:23;17.87;;;9.40;;
19024;SDS011;9645;51.448;6.260;2023-11-22T11:06:54;18.63;;;9.87;;
19024;SDS011;9645;51.448;6.260;2023-11-22T11:09:22;12.70;;;8.00;;
19024;SDS011;9645;51.448;6.260;2023-11-22T11:11:56;12.53;;;7.17;;
19024;SDS011;9645;51.448;6.260;2023-11-22T11:14:23;13.70;;;7.67;;
19024;SDS011;9645;51.448;6.260;2023-11-22T11:16:51;15.33;;;7.80;;
19024;SDS011;9645;51.448;6.260;2023-11-22T11:19:19;16.77;;;8.60;;
19024;SDS011;9645;51.448;6.260;2023-11-22T11:21:47;16.40;;;8.40;;
19024;SDS011;9645;51.448;6.260;2023-11-22T11:24:14;18.23;;;9.27;;
19024;SDS011;9645;51.448;6.260;2023-11-22T11:26:41;20.67;;;9.07;;
19024;SDS011;9645;51.448;6.260;2023-11-22T11:29:30;19.80;;;9.03;;
19024;SDS011;9645;51.448;6.260;2023-11-22T11:31:58;14.00;;;7.77;;
19024;SDS011;9645;51.448;6.260;2023-11-22T11:34:24;16.37;;;7.83;;
19024;SDS011;9645;51.448;6.260;2023-11-22T11:36:52;15.13;;;8.57;;
19024;SDS011;9645;51.448;6.260;2023-11-22T11:39:24;18.47;;;8.07;;
19024;SDS011;9645;51.448;6.260;2023-11-22T11:42:07;17.60;;;7.97;;
19024;SDS011;9645;51.448;6.260;2023-11-22T11:44:36;12.53;;;7.33;;
19024;SDS011;9645;51.448;6.260;2023-11-22T11:47:08;15.37;;;7.67;;
19024;SDS011;9645;51.448;6.260;2023-11-22T11:49:39;15.87;;;8.00;;
19024;SDS011;9645;51.448;6.260;2023-11-22T11:52:07;20.00;;;7.70;;
19024;SDS011;9645;51.448;6.260;2023-11-22T11:54:34;17.83;;;8.00;;
19024;SDS011;9645;51.448;6.260;2023-11-22T11:57:03;17.80;;;8.47;;
19024;SDS011;9645;51.448;6.260;2023-11-22T11:59:31;12.73;;;7.60;;
19024;SDS011;9645;51.448;6.260;2023-11-22T12:02:01;15.70;;;7.70;;
19024;SDS011;9645;51.448;6.260;2023-11-22T12:04:30;16.13;;;8.07;;
19024;SDS011;9645;51.448;6.260;2023-11-22T12:06:58;13.97;;;7.77;;
19024;SDS011;9645;51.448;6.260;2023-11-22T12:09:25;15.43;;;7.70;;
19024;SDS011;9645;51.448;6.260;2023-11-22T12:11:52;17.13;;;7.73;;
19024;SDS011;9645;51.448;6.260;2023-11-22T12:14:19;21.30;;;7.50;;
19024;SDS011;9645;51.448;6.260;2023-11-22T12:16:47;19.13;;;7.70;;
19024;SDS011;9645;51.448;6.260;2023-11-22T12:19:24;14.27;;;7.13;;
19024;SDS011;9645;51.448;6.260;2023-11-22T12:21:53;14.90;;;6.30;;
19024;SDS011;9645;51.448;6.260;2023-11-22T12:24:20;10.90;;;5.50;;
19024;SDS011;9645;51.448;6.260;2023-11-22T12:26:47;11.27;;;5.78;;
19024;SDS011;9645;51.448;6.260;2023-11-22T12:29:15;9.63;;;4.90;;
19024;SDS011;9645;51.448;6.260;2023-11-22T12:31:46;10.23;;;4.85;;
19024;SDS011;9645;51.448;6.260;2023-11-22T12:34:16;7.22;;;3.80;;
19024;SDS011;9645;51.448;6.260;2023-11-22T12:36:45;6.38;;;3.60;;
19024;SDS011;9645;51.448;6.260;2023-11-22T12:39:13;6.93;;;4.32;;
19024;SDS011;9645;51.448;6.260;2023-11-22T12:41:46;7.25;;;4.22;;
19024;SDS011;9645;51.448;6.260;2023-11-22T12:44:15;6.75;;;3.55;;
19024;SDS011;9645;51.448;6.260;2023-11-22T12:46:46;8.25;;;3.95;;
19024;SDS011;9645;51.448;6.260;2023-11-22T12:49:15;7.85;;;4.15;;
19024;SDS011;9645;51.448;6.260;2023-11-22T12:51:49;7.18;;;3.53;;
19024;SDS011;9645;51.448;6.260;2023-11-22T12:54:17;8.10;;;4.22;;
19024;SDS011;9645;51.448;6.260;2023-11-22T12:56:46;9.95;;;3.92;;
19024;SDS011;9645;51.448;6.260;2023-11-22T12:59:15;9.93;;;4.43;;
19024;SDS011;9645;51.448;6.260;2023-11-22T13:01:43;12.60;;;5.28;;
19024;SDS011;9645;51.448;6.260;2023-11-22T13:04:10;10.43;;;4.65;;
19024;SDS011;9645;51.448;6.260;2023-11-22T13:06:41;13.30;;;5.47;;
19024;SDS011;9645;51.448;6.260;2023-11-22T13:09:09;10.40;;;4.40;;
19024;SDS011;9645;51.448;6.260;2023-11-22T13:11:40;12.25;;;5.80;;
19024;SDS011;9645;51.448;6.260;2023-11-22T13:14:08;8.85;;;4.15;;
19024;SDS011;9645;51.448;6.260;2023-11-22T13:16:36;9.40;;;4.45;;
19024;SDS011;9645;51.448;6.260;2023-11-22T13:19:04;9.95;;;4.00;;
19024;SDS011;9645;51.448;6.260;2023-11-22T13:21:32;11.60;;;5.28;;
19024;SDS011;9645;51.448;6.260;2023-11-22T13:23:59;14.45;;;5.10;;
19024;SDS011;9645;51.448;6.260;2023-11-22T13:26:27;14.30;;;6.25;;
19024;SDS011;9645;51.448;6.260;2023-11-22T13:28:54;16.05;;;5.90;;
19024;SDS011;9645;51.448;6.260;2023-11-22T13:31:21;18.63;;;6.20;;
19024;SDS011;9645;51.448;6.260;2023-11-22T13:33:49;13.43;;;5.72;;
19024;SDS011;9645;51.448;6.260;2023-11-22T13:36:16;23.75;;;7.05;;
19024;SDS011;9645;51.448;6.260;2023-11-22T13:38:43;14.95;;;6.50;;
19024;SDS011;9645;51.448;6.260;2023-11-22T13:41:12;15.75;;;6.60;;
19024;SDS011;9645;51.448;6.260;2023-11-22T13:43:41;14.30;;;6.00;;
19024;SDS011;9645;51.448;6.260;2023-11-22T13:46:08;16.80;;;6.55;;
19024;SDS011;9645;51.448;6.260;2023-11-22T13:48:37;17.38;;;6.90;;
19024;SDS011;9645;51.448;6.260;2023-11-22T13:51:04;17.80;;;6.85;;
19024;SDS011;9645;51.448;6.260;2023-11-22T13:53:33;16.58;;;6.88;;
19024;SDS011;9645;51.448;6.260;2023-11-22T13:56:03;18.30;;;8.55;;
19024;SDS011;9645;51.448;6.260;2023-11-22T13:58:33;25.80;;;9.65;;
19024;SDS011;9645;51.448;6.260;2023-11-22T14:01:02;32.05;;;11.52;;
19024;SDS011;9645;51.448;6.260;2023-11-22T14:03:31;30.98;;;12.50;;
19024;SDS011;9645;51.448;6.260;2023-11-22T14:05:58;34.22;;;13.38;;
19024;SDS011;9645;51.448;6.260;2023-11-22T14:08:25;44.38;;;15.20;;
19024;SDS011;9645;51.448;6.260;2023-11-22T14:10:52;41.25;;;15.70;;
19024;SDS011;9645;51.448;6.260;2023-11-22T14:13:19;54.72;;;18.65;;
19024;SDS011;9645;51.448;6.260;2023-11-22T14:15:47;46.08;;;17.77;;
19024;SDS011;9645;51.448;6.260;2023-11-22T14:18:15;46.92;;;17.42;;
19024;SDS011;9645;51.448;6.260;2023-11-22T14:20:43;57.15;;;18.98;;
19024;SDS011;9645;51.448;6.260;2023-11-22T14:23:10;45.22;;;17.30;;
19024;SDS011;9645;51.448;6.260;2023-11-22T14:25:37;49.97;;;17.92;;
19024;SDS011;9645;51.448;6.260;2023-11-22T14:28:04;41.17;;;16.35;;
19024;SDS011;9645;51.448;6.260;2023-11-22T14:30:31;41.50;;;15.27;;
19024;SDS011;9645;51.448;6.260;2023-11-22T14:33:00;37.88;;;14.75;;
19024;SDS011;9645;51.448;6.260;2023-11-22T14:35:33;33.65;;;13.02;;
19024;SDS011;9645;51.448;6.260;2023-11-22T14:38:00;46.25;;;12.95;;
19024;SDS011;9645;51.448;6.260;2023-11-22T14:40:28;38.50;;;12.35;;
19024;SDS011;9645;51.448;6.260;2023-11-22T14:42:56;36.38;;;12.18;;
19024;SDS011;9645;51.448;6.260;2023-11-22T14:45:23;30.30;;;11.20;;
19024;SDS011;9645;51.448;6.260;2023-11-22T14:47:51;31.95;;;11.77;;
19024;SDS011;9645;51.448;6.260;2023-11-22T14:50:18;32.67;;;11.55;;
19024;SDS011;9645;51.448;6.260;2023-11-22T14:52:47;31.17;;;12.18;;
19024;SDS011;9645;51.448;6.260;2023-11-22T14:55:16;32.35;;;12.55;;